Aviation Digital Data Service (ADDS)

Output produced by METARs form (1202 UTC 25 June 2019)
found at http://www.aviationweather.gov/metar/data/
 
OKAS 251156Z 33013G18KT 280V360 9999 CLR 48/M02 A2963 RMK AO2A SLP026 WND DATA ESTMD T04811018 10488 20232 57014
TAF AMD OKAS 250838Z 2508/2613 35012G18KT 9000 HZ SKC QNH2963INS 
     TEMPO 2509/2514 33015G25KT 8000 BLDU 
     BECMG 2514/2515 30009KT 9999 NSW SKC QNH2960INS 
     BECMG 2606/2607 31015G25KT 8000 BLDU SKC QNH2958INS TX48/2512Z TN31/2602Z
       
OKBK 251200Z 34013KT CAVOK 48/03 Q1001 NOSIG
TAF OKBK 251045Z 2512/2618 34012KT 7000 SKC